Time;durP1;ratioP1;P1;durP2;ratioP2;P2;SDS_P1;SDS_P2;PMS_P1;PMS_P2;Temp;Humidity;BMP_temperature;BMP_pressure;BME280_temperature;BME280_humidity;BME280_pressure;Samples;Min_cycle;Max_cycle;Signal;HPM_P1;HPM_P2
2023/10/01 00:03:24;;;;;;;6.43;2.47;;;;;;;;;;10278084;28;20408;-76
2023/10/01 00:08:29;;;;;;;3.67;2.20;;;;;;;;;;10268081;28;20049;-76
2023/10/01 00:13:33;;;;;;;4.22;2.53;;;;;;;;;;10273905;28;20145;-76
2023/10/01 00:18:38;;;;;;;4.05;2.20;;;;;;;;;;10262260;28;20117;-76
2023/10/01 00:23:41;;;;;;;5.20;2.20;;;;;;;;;;10263680;28;20481;-76
2023/10/01 00:28:45;;;;;;;4.13;2.30;;;;;;;;;;10270158;28;20097;-76
2023/10/01 00:33:49;;;;;;;4.22;2.22;;;;;;;;;;10270638;28;20050;-77
2023/10/01 00:38:53;;;;;;;4.47;2.30;;;;;;;;;;10265956;28;20559;-77
2023/10/01 00:44:00;;;;;;;3.10;1.92;;;;;;;;;;10271652;28;20050;-77
2023/10/01 00:49:07;;;;;;;2.83;1.83;;;;;;;;;;10274295;28;20032;-77
2023/10/01 00:54:11;;;;;;;4.25;2.40;;;;;;;;;;10266621;28;20650;-76
2023/10/01 00:59:14;;;;;;;3.00;1.95;;;;;;;;;;10268687;28;20070;-76
2023/10/01 01:04:21;;;;;;;4.50;1.50;;;;;;;;;;10281899;28;20043;-76
2023/10/01 01:09:28;;;;;;;4.97;2.10;;;;;;;;;;10258539;28;20050;-77
2023/10/01 01:14:33;;;;;;;5.10;2.05;;;;;;;;;;10266564;28;20055;-77
2023/10/01 01:19:39;;;;;;;2.70;1.80;;;;;;;;;;10252566;28;20046;-76
2023/10/01 01:24:43;;;;;;;3.23;2.10;;;;;;;;;;10266103;28;20058;-76
2023/10/01 01:29:50;;;;;;;3.53;2.13;;;;;;;;;;10270195;28;20578;-76
2023/10/01 01:34:54;;;;;;;3.35;2.17;;;;;;;;;;10264136;28;20622;-76
2023/10/01 01:39:59;;;;;;;5.95;2.20;;;;;;;;;;10260834;28;20564;-78
2023/10/01 01:45:20;;;;;;;3.20;2.13;;;;;;;;;;10268793;28;20560;-76
2023/10/01 01:50:26;;;;;;;3.58;1.67;;;;;;;;;;10269833;28;20457;-76
2023/10/01 01:55:34;;;;;;;2.22;1.50;;;;;;;;;;10266001;28;20061;-77
2023/10/01 02:00:46;;;;;;;3.85;2.03;;;;;;;;;;10256822;28;20047;-76
2023/10/01 02:05:49;;;;;;;3.00;1.83;;;;;;;;;;10266212;28;20061;-76
2023/10/01 02:10:55;;;;;;;3.92;2.00;;;;;;;;;;10269594;28;20053;-76
2023/10/01 02:16:18;;;;;;;3.70;1.85;;;;;;;;;;10272687;28;20059;-76
2023/10/01 02:21:42;;;;;;;3.40;1.73;;;;;;;;;;10258844;28;20047;-77
2023/10/01 02:26:52;;;;;;;3.33;1.70;;;;;;;;;;10271351;28;20066;-78
2023/10/01 02:31:56;;;;;;;2.45;1.65;;;;;;;;;;10268893;28;20055;-77
2023/10/01 02:37:03;;;;;;;4.60;2.38;;;;;;;;;;10266898;28;20067;-77
2023/10/01 02:42:21;;;;;;;3.53;1.83;;;;;;;;;;10261326;28;20075;-77
2023/10/01 02:47:25;;;;;;;3.13;1.77;;;;;;;;;;10264629;28;20054;-78
2023/10/01 02:52:36;;;;;;;4.00;2.10;;;;;;;;;;10263522;28;20051;-77
2023/10/01 02:57:41;;;;;;;3.03;1.85;;;;;;;;;;10258841;28;20110;-77
2023/10/01 03:02:53;;;;;;;3.10;1.80;;;;;;;;;;10263360;28;20459;-77
2023/10/01 03:07:57;;;;;;;3.83;2.25;;;;;;;;;;10271099;28;20242;-76
2023/10/01 03:13:14;;;;;;;3.42;1.95;;;;;;;;;;10269799;28;20125;-76
2023/10/01 03:23:36;;;;;;;3.15;1.88;;;;;;;;;;10267854;28;20043;-76
2023/10/01 03:33:59;;;;;;;2.33;1.67;;;;;;;;;;10271931;28;20098;-76
2023/10/01 03:39:25;;;;;;;1.98;1.63;;;;;;;;;;10275980;28;20138;-76
2023/10/01 03:44:59;;;;;;;3.13;1.67;;;;;;;;;;10272849;28;20047;-77
2023/10/01 03:50:04;;;;;;;3.90;2.03;;;;;;;;;;10281297;28;20039;-76
2023/10/01 03:55:26;;;;;;;3.35;1.70;;;;;;;;;;10273036;28;20050;-76
2023/10/01 04:00:34;;;;;;;3.00;1.73;;;;;;;;;;10274789;28;20431;-76
2023/10/01 04:05:37;;;;;;;3.25;1.90;;;;;;;;;;10284276;28;20093;-76
2023/10/01 04:10:42;;;;;;;2.53;1.50;;;;;;;;;;10275818;28;20050;-77
2023/10/01 04:15:49;;;;;;;2.72;1.70;;;;;;;;;;10282091;28;20047;-77
2023/10/01 04:21:24;;;;;;;3.35;1.88;;;;;;;;;;10281186;28;20039;-76
2023/10/01 04:26:30;;;;;;;2.08;1.40;;;;;;;;;;10286568;28;20070;-77
2023/10/01 04:31:48;;;;;;;3.03;1.65;;;;;;;;;;10287549;28;20035;-77
2023/10/01 04:36:53;;;;;;;3.90;1.77;;;;;;;;;;10277360;28;20066;-77
2023/10/01 04:41:59;;;;;;;3.38;1.88;;;;;;;;;;10287780;28;20051;-77
2023/10/01 04:47:30;;;;;;;;;;;;;;;;;;10288606;28;20042;-77
2023/10/01 04:52:28;;;;;;;3.03;1.95;;;;;;;;;;10286219;28;19950;-77
2023/10/01 04:57:36;;;;;;;5.22;2.03;;;;;;;;;;10276028;28;20058;-77
2023/10/01 05:02:43;;;;;;;3.33;2.20;;;;;;;;;;10283007;28;20049;-77
2023/10/01 05:07:46;;;;;;;3.50;1.77;;;;;;;;;;10275629;28;20142;-77
2023/10/01 05:12:55;;;;;;;3.92;2.13;;;;;;;;;;10278574;28;20050;-77
2023/10/01 05:18:01;;;;;;;4.32;2.20;;;;;;;;;;10279500;28;20716;-77
2023/10/01 05:23:06;;;;;;;3.00;2.00;;;;;;;;;;10279380;28;20051;-76
2023/10/01 05:28:23;;;;;;;4.53;2.17;;;;;;;;;;10270338;28;20059;-77
2023/10/01 05:33:28;;;;;;;4.30;2.10;;;;;;;;;;10282668;28;20061;-77
2023/10/01 05:38:34;;;;;;;4.43;1.80;;;;;;;;;;10277553;28;20047;-77
2023/10/01 05:43:38;;;;;;;4.78;2.20;;;;;;;;;;10287934;28;20492;-77
2023/10/01 05:48:43;;;;;;;3.15;1.92;;;;;;;;;;10279610;28;20447;-77
2023/10/01 05:53:48;;;;;;;2.60;1.80;;;;;;;;;;10274547;28;20063;-77
2023/10/01 05:58:52;;;;;;;3.92;2.33;;;;;;;;;;10285708;28;20054;-77
2023/10/01 06:03:59;;;;;;;3.15;2.03;;;;;;;;;;10274505;28;20519;-77
2023/10/01 06:09:09;;;;;;;3.20;1.80;;;;;;;;;;10279113;28;20090;-77
2023/10/01 06:14:36;;;;;;;3.28;1.77;;;;;;;;;;10282722;28;20047;-77
2023/10/01 06:19:40;;;;;;;2.80;2.00;;;;;;;;;;10276760;28;20063;-77
2023/10/01 06:24:46;;;;;;;3.53;1.90;;;;;;;;;;10274742;28;20070;-77
2023/10/01 06:29:56;;;;;;;2.72;1.73;;;;;;;;;;10269215;28;20047;-77
2023/10/01 06:35:02;;;;;;;3.78;1.90;;;;;;;;;;10282762;28;20105;-77
2023/10/01 06:40:29;;;;;;;3.22;1.77;;;;;;;;;;10274984;28;20053;-77
2023/10/01 06:45:39;;;;;;;3.08;1.80;;;;;;;;;;10277039;28;20046;-78
2023/10/01 06:50:46;;;;;;;2.38;1.67;;;;;;;;;;10270380;28;20061;-77
2023/10/01 06:55:52;;;;;;;3.45;2.17;;;;;;;;;;10278534;28;20039;-77
2023/10/01 07:00:56;;;;;;;3.33;1.98;;;;;;;;;;10278223;28;20054;-77
2023/10/01 07:06:04;;;;;;;2.88;1.65;;;;;;;;;;10272127;28;20047;-77
2023/10/01 07:11:15;;;;;;;2.35;1.50;;;;;;;;;;10270253;28;20054;-77
2023/10/01 07:16:35;;;;;;;2.58;1.70;;;;;;;;;;10275086;28;20046;-77
2023/10/01 07:21:41;;;;;;;4.05;2.03;;;;;;;;;;10280921;28;20564;-78
2023/10/01 07:26:46;;;;;;;2.97;1.63;;;;;;;;;;10278226;28;20058;-77
2023/10/01 07:31:50;;;;;;;3.25;2.08;;;;;;;;;;10270015;28;20038;-77
2023/10/01 07:36:56;;;;;;;3.25;1.75;;;;;;;;;;10272239;28;20111;-78
2023/10/01 07:42:02;;;;;;;3.35;2.13;;;;;;;;;;10275112;28;20098;-77
2023/10/01 07:47:06;;;;;;;4.68;1.73;;;;;;;;;;10281825;28;20058;-77
2023/10/01 07:52:11;;;;;;;3.63;1.88;;;;;;;;;;10293627;28;22646;-77
2023/10/01 07:57:16;;;;;;;3.35;1.85;;;;;;;;;;10281513;28;20047;-77
2023/10/01 08:02:27;;;;;;;2.65;1.85;;;;;;;;;;10274639;28;20035;-77
2023/10/01 08:07:39;;;;;;;3.28;1.92;;;;;;;;;;10286314;28;20039;-77
2023/10/01 08:23:25;;;;;;;3.00;1.77;;;;;;;;;;10269379;28;20038;-77
2023/10/01 08:28:29;;;;;;;3.42;1.80;;;;;;;;;;10280668;28;20070;-77
2023/10/01 08:33:42;;;;;;;2.67;1.60;;;;;;;;;;10287230;28;20065;-77
2023/10/01 08:38:48;;;;;;;4.95;2.35;;;;;;;;;;10281601;28;20540;-77
2023/10/01 08:44:09;;;;;;;4.75;2.58;;;;;;;;;;10290901;28;20727;-76
2023/10/01 08:49:23;;;;;;;4.53;2.53;;;;;;;;;;10281747;28;20050;-76
2023/10/01 08:54:29;;;;;;;7.85;3.22;;;;;;;;;;10273517;28;20043;-77
2023/10/01 08:59:32;;;;;;;6.65;3.53;;;;;;;;;;10278032;28;20538;-76
2023/10/01 09:04:45;;;;;;;7.88;3.92;;;;;;;;;;10278184;28;20043;-76
2023/10/01 09:10:07;;;;;;;7.05;3.60;;;;;;;;;;10289175;28;20424;-77
2023/10/01 09:15:27;;;;;;;4.85;2.75;;;;;;;;;;10286545;28;20094;-76
2023/10/01 09:20:42;;;;;;;5.47;3.22;;;;;;;;;;10277020;28;20051;-76
2023/10/01 09:26:00;;;;;;;7.07;3.90;;;;;;;;;;10280903;28;20043;-77
2023/10/01 09:31:26;;;;;;;8.60;3.83;;;;;;;;;;10285413;28;20102;-76
2023/10/01 09:36:38;;;;;;;8.68;3.90;;;;;;;;;;10284959;28;20153;-76
2023/10/01 09:41:46;;;;;;;7.72;4.78;;;;;;;;;;10287334;28;20233;-76
2023/10/01 09:46:55;;;;;;;6.13;3.70;;;;;;;;;;10286200;28;20054;-77
2023/10/01 09:52:06;;;;;;;11.15;4.70;;;;;;;;;;10286679;28;20394;-76
2023/10/01 09:57:12;;;;;;;6.68;3.35;;;;;;;;;;10266464;28;20046;-76
2023/10/01 10:02:27;;;;;;;7.15;3.75;;;;;;;;;;10275942;28;20563;-76
2023/10/01 10:07:32;;;;;;;8.30;4.13;;;;;;;;;;10286480;28;20051;-76
2023/10/01 10:12:37;;;;;;;6.47;3.37;;;;;;;;;;10278068;28;20042;-76
2023/10/01 10:17:58;;;;;;;8.00;4.25;;;;;;;;;;10283534;28;20078;-76
2023/10/01 10:23:15;;;;;;;13.45;7.25;;;;;;;;;;10281009;28;20050;-76
2023/10/01 10:29:01;;;;;;;10.30;4.95;;;;;;;;;;10273228;28;20062;-76
2023/10/01 10:34:24;;;;;;;8.70;5.05;;;;;;;;;;10281012;28;20043;-76
2023/10/01 10:40:27;;;;;;;9.55;4.95;;;;;;;;;;10282453;28;20129;-76
2023/10/01 10:45:42;;;;;;;10.70;5.68;;;;;;;;;;10284823;28;20063;-76
2023/10/01 10:50:48;;;;;;;12.15;5.68;;;;;;;;;;10275021;28;20552;-76
2023/10/01 10:56:02;;;;;;;;;;;;;;;;;;10274909;28;20043;-76
2023/10/01 11:01:18;;;;;;;9.65;5.18;;;;;;;;;;10274750;28;19960;-76
2023/10/01 11:06:23;;;;;;;12.87;6.37;;;;;;;;;;10268259;28;20451;-76
2023/10/01 11:11:28;;;;;;;9.27;5.13;;;;;;;;;;10284271;28;20352;-76
2023/10/01 11:16:44;;;;;;;11.75;6.10;;;;;;;;;;10282404;28;20046;-77
2023/10/01 11:21:55;;;;;;;9.93;5.25;;;;;;;;;;10283391;28;20047;-76
2023/10/01 11:27:25;;;;;;;10.90;5.78;;;;;;;;;;10276453;28;20500;-76
2023/10/01 11:33:01;;;;;;;10.18;5.38;;;;;;;;;;10273923;28;20389;-76
2023/10/01 11:38:18;;;;;;;13.07;5.70;;;;;;;;;;10202591;28;20045;-76
2023/10/01 11:43:27;;;;;;;8.63;4.35;;;;;;;;;;10259557;28;20094;-76
2023/10/01 11:48:56;;;;;;;7.70;4.00;;;;;;;;;;10281649;28;20047;-76
2023/10/01 11:54:08;;;;;;;11.95;5.80;;;;;;;;;;10276888;28;20039;-76
2023/10/01 11:59:20;;;;;;;11.23;5.68;;;;;;;;;;10276580;28;20183;-76
2023/10/01 12:04:43;;;;;;;12.23;6.20;;;;;;;;;;10288124;28;20047;-75
2023/10/01 12:09:51;;;;;;;10.80;5.28;;;;;;;;;;10279674;28;20508;-76
2023/10/01 12:15:33;;;;;;;10.07;5.30;;;;;;;;;;10278718;28;20041;-76
2023/10/01 12:20:28;;;;;;;13.07;6.13;;;;;;;;;;10281097;28;20050;-76
2023/10/01 12:25:42;;;;;;;13.85;6.97;;;;;;;;;;10277796;28;20043;-76
2023/10/01 12:30:47;;;;;;;13.10;6.57;;;;;;;;;;10273762;28;20101;-76
2023/10/01 12:35:53;;;;;;;13.93;6.60;;;;;;;;;;10287715;28;20113;-76
2023/10/01 12:40:56;;;;;;;11.90;6.50;;;;;;;;;;10289154;28;20043;-75
2023/10/01 12:46:00;;;;;;;12.77;7.07;;;;;;;;;;10287072;28;20391;-76
2023/10/01 12:51:07;;;;;;;7.75;4.57;;;;;;;;;;10286955;28;20047;-76
2023/10/01 12:56:22;;;;;;;8.95;4.75;;;;;;;;;;10284296;28;20054;-76
2023/10/01 13:02:04;;;;;;;14.20;7.03;;;;;;;;;;10281469;28;20673;-76
2023/10/01 13:07:11;;;;;;;13.98;7.10;;;;;;;;;;10286489;28;20050;-76
2023/10/01 13:12:17;;;;;;;12.32;6.50;;;;;;;;;;10282031;28;20081;-76
2023/10/01 13:17:20;;;;;;;13.55;7.05;;;;;;;;;;10282811;28;20157;-76
2023/10/01 13:22:25;;;;;;;16.02;7.28;;;;;;;;;;10276165;28;20061;-76
2023/10/01 13:27:28;;;;;;;16.00;7.17;;;;;;;;;;10281153;28;20054;-76
2023/10/01 13:32:32;;;;;;;12.13;6.13;;;;;;;;;;10274480;28;20055;-76
2023/10/01 13:37:43;;;;;;;12.52;6.55;;;;;;;;;;10276041;28;20066;-76
2023/10/01 14:14:59;;;;;;;6.80;3.42;;;;;;;;;;10241104;29;20049;-78
2023/10/01 14:20:08;;;;;;;7.68;3.88;;;;;;;;;;10228843;28;20051;-77
2023/10/01 14:25:20;;;;;;;8.43;4.72;;;;;;;;;;10236315;29;20039;-78
2023/10/01 14:30:26;;;;;;;8.80;4.55;;;;;;;;;;10231517;29;20055;-77
2023/10/01 14:35:37;;;;;;;6.93;3.78;;;;;;;;;;10238137;28;20588;-78
2023/10/01 14:40:44;;;;;;;7.07;3.90;;;;;;;;;;10233260;28;20464;-77
2023/10/01 14:45:48;;;;;;;8.68;4.55;;;;;;;;;;10240057;28;20408;-78
2023/10/01 14:50:56;;;;;;;7.70;4.10;;;;;;;;;;10244165;28;20047;-78
2023/10/01 14:56:04;;;;;;;9.07;4.80;;;;;;;;;;10257728;29;20524;-78
2023/10/01 15:01:09;;;;;;;7.72;4.60;;;;;;;;;;10245825;29;20083;-78
2023/10/01 15:06:17;;;;;;;6.27;3.30;;;;;;;;;;10233095;28;20048;-78
2023/10/01 15:11:23;;;;;;;6.82;3.75;;;;;;;;;;10235277;28;20562;-78
2023/10/01 15:16:30;;;;;;;7.43;3.50;;;;;;;;;;10232352;28;20416;-78
2023/10/01 15:21:33;;;;;;;5.75;3.30;;;;;;;;;;10236881;28;20453;-78
2023/10/01 15:26:42;;;;;;;5.38;3.33;;;;;;;;;;10225153;28;20051;-78
2023/10/01 15:31:51;;;;;;;6.68;3.42;;;;;;;;;;10241081;28;20492;-78
2023/10/01 15:37:02;;;;;;;8.23;4.18;;;;;;;;;;10226269;28;20110;-78
2023/10/01 15:42:11;;;;;;;6.75;3.78;;;;;;;;;;10218873;28;20051;-78
2023/10/01 15:47:32;;;;;;;9.30;4.65;;;;;;;;;;10236724;28;20059;-78
2023/10/01 15:52:45;;;;;;;7.47;4.03;;;;;;;;;;10235106;29;20061;-78
2023/10/01 15:57:55;;;;;;;7.53;3.45;;;;;;;;;;10230506;28;20047;-78
2023/10/01 16:03:09;;;;;;;6.70;3.53;;;;;;;;;;10229697;29;20051;-78
2023/10/01 16:08:17;;;;;;;8.50;4.53;;;;;;;;;;10241385;28;20501;-78
2023/10/01 16:13:27;;;;;;;6.13;3.58;;;;;;;;;;10248414;28;20050;-78
2023/10/01 16:18:32;;;;;;;6.85;3.60;;;;;;;;;;10237765;28;20477;-78
2023/10/01 16:23:36;;;;;;;6.70;4.00;;;;;;;;;;10247275;29;20471;-78
2023/10/01 16:28:44;;;;;;;8.52;4.32;;;;;;;;;;10234738;29;20067;-78
2023/10/01 16:33:49;;;;;;;7.03;3.53;;;;;;;;;;10231265;29;20047;-78
2023/10/01 16:38:53;;;;;;;9.00;4.13;;;;;;;;;;10230012;29;20039;-78
2023/10/01 16:43:59;;;;;;;6.53;3.57;;;;;;;;;;10238368;29;20075;-78
2023/10/01 16:49:04;;;;;;;7.10;3.90;;;;;;;;;;10249917;28;20531;-78
2023/10/01 16:54:14;;;;;;;6.28;3.42;;;;;;;;;;10248012;29;20491;-79
2023/10/01 16:59:21;;;;;;;9.32;4.03;;;;;;;;;;10229045;29;20409;-78
2023/10/01 17:04:26;;;;;;;6.60;3.70;;;;;;;;;;10236630;29;20064;-79
2023/10/01 17:09:33;;;;;;;7.25;3.67;;;;;;;;;;10251117;28;20059;-78
2023/10/01 17:14:39;;;;;;;6.50;3.50;;;;;;;;;;10233080;29;20043;-79
2023/10/01 17:19:43;;;;;;;7.95;3.78;;;;;;;;;;10239250;28;20066;-79
2023/10/01 17:24:51;;;;;;;7.40;4.00;;;;;;;;;;10236922;29;20055;-78
2023/10/01 17:29:56;;;;;;;6.50;3.97;;;;;;;;;;10229816;29;20073;-78
2023/10/01 17:35:01;;;;;;;8.93;4.17;;;;;;;;;;10232829;29;20409;-79
2023/10/01 17:40:17;;;;;;;7.88;4.10;;;;;;;;;;10244405;28;20287;-79
2023/10/01 17:45:22;;;;;;;7.53;3.80;;;;;;;;;;10244376;28;20059;-78
2023/10/01 17:50:25;;;;;;;7.80;4.38;;;;;;;;;;10215730;29;20065;-78
2023/10/01 17:55:31;;;;;;;8.63;4.57;;;;;;;;;;10254368;28;20351;-78
2023/10/01 18:00:39;;;;;;;9.57;3.97;;;;;;;;;;10233914;28;20142;-78
2023/10/01 18:05:46;;;;;;;7.78;4.00;;;;;;;;;;10214272;28;20059;-78
2023/10/01 18:10:58;;;;;;;7.85;4.47;;;;;;;;;;10228493;29;20043;-78
2023/10/01 18:16:03;;;;;;;9.07;3.70;;;;;;;;;;10237700;28;20047;-78
2023/10/01 18:21:13;;;;;;;8.50;4.25;;;;;;;;;;10236673;29;20083;-78
2023/10/01 18:26:19;;;;;;;7.75;4.30;;;;;;;;;;10235086;29;20058;-79
2023/10/01 18:31:25;;;;;;;7.57;3.60;;;;;;;;;;10215046;28;20057;-78
2023/10/01 18:36:31;;;;;;;9.13;4.10;;;;;;;;;;10232269;28;20104;-78
2023/10/01 18:41:34;;;;;;;7.30;3.73;;;;;;;;;;10234641;28;20043;-78
2023/10/01 18:46:39;;;;;;;7.80;4.50;;;;;;;;;;10238843;28;20047;-78
2023/10/01 18:51:42;;;;;;;7.18;3.75;;;;;;;;;;10248434;28;20066;-79
2023/10/01 18:56:46;;;;;;;9.63;4.82;;;;;;;;;;10250196;28;20201;-78
2023/10/01 19:01:56;;;;;;;7.18;4.10;;;;;;;;;;10233728;29;20405;-79
2023/10/01 19:07:01;;;;;;;6.97;3.80;;;;;;;;;;10236174;28;20075;-78
2023/10/01 19:12:05;;;;;;;7.47;4.13;;;;;;;;;;10227423;28;20039;-78
2023/10/01 19:17:10;;;;;;;7.43;3.90;;;;;;;;;;10224517;28;20735;-78
2023/10/01 19:22:13;;;;;;;6.68;3.88;;;;;;;;;;10235421;29;20066;-78
2023/10/01 19:27:17;;;;;;;8.45;4.28;;;;;;;;;;10237883;29;20055;-78
2023/10/01 19:32:22;;;;;;;9.35;4.40;;;;;;;;;;10238685;28;20055;-78
2023/10/01 19:37:27;;;;;;;8.93;4.13;;;;;;;;;;10233140;28;20057;-78
2023/10/01 19:42:32;;;;;;;8.88;4.85;;;;;;;;;;10230679;28;20139;-78
2023/10/01 19:47:41;;;;;;;8.65;4.22;;;;;;;;;;10242645;28;20049;-78
2023/10/01 19:52:46;;;;;;;7.30;3.85;;;;;;;;;;10240410;29;20126;-77
2023/10/01 19:57:52;;;;;;;8.40;4.20;;;;;;;;;;10241742;28;20127;-78
2023/10/01 20:03:10;;;;;;;7.45;3.85;;;;;;;;;;10241437;29;20114;-78
2023/10/01 20:08:14;;;;;;;8.85;4.47;;;;;;;;;;10245106;28;20042;-78
2023/10/01 20:13:18;;;;;;;8.32;4.40;;;;;;;;;;10229125;29;20542;-78
2023/10/01 20:18:26;;;;;;;9.50;4.43;;;;;;;;;;10245005;28;20049;-78
2023/10/01 20:23:29;;;;;;;8.65;4.70;;;;;;;;;;10236745;29;20035;-78
2023/10/01 20:28:32;;;;;;;7.05;4.40;;;;;;;;;;10235775;28;20062;-78
2023/10/01 20:33:39;;;;;;;8.10;4.53;;;;;;;;;;10241686;29;20058;-78
2023/10/01 20:38:49;;;;;;;8.30;4.85;;;;;;;;;;10238347;28;20127;-78
2023/10/01 20:43:55;;;;;;;10.98;4.70;;;;;;;;;;10233625;29;20077;-78
2023/10/01 20:49:01;;;;;;;;;;;;;;;;;;10237714;29;20122;-79
2023/10/01 20:54:06;;;;;;;7.80;4.10;;;;;;;;;;10257371;28;20009;-79
2023/10/01 20:59:13;;;;;;;7.10;4.38;;;;;;;;;;10247673;28;20457;-78
2023/10/01 21:04:24;;;;;;;8.32;4.22;;;;;;;;;;10224796;29;20047;-78
2023/10/01 21:09:27;;;;;;;8.70;4.07;;;;;;;;;;10245059;28;20032;-78
2023/10/01 21:14:36;;;;;;;7.72;4.00;;;;;;;;;;10251724;29;20050;-78
2023/10/01 21:19:42;;;;;;;6.35;3.70;;;;;;;;;;10230486;28;20078;-78
2023/10/01 21:24:46;;;;;;;7.28;3.60;;;;;;;;;;10241669;29;20408;-78
2023/10/01 21:29:49;;;;;;;8.02;4.22;;;;;;;;;;10237864;28;20039;-78
2023/10/01 21:34:54;;;;;;;8.43;4.10;;;;;;;;;;10227329;28;20421;-78
2023/10/01 21:39:57;;;;;;;8.50;4.25;;;;;;;;;;10249211;28;20690;-78
2023/10/01 21:45:19;;;;;;;8.25;4.45;;;;;;;;;;10242631;28;20416;-77
2023/10/01 21:50:24;;;;;;;8.90;4.55;;;;;;;;;;10245931;28;20039;-78
2023/10/01 21:55:28;;;;;;;7.28;4.28;;;;;;;;;;10234016;29;20047;-78
2023/10/01 22:06:05;;;;;;;7.63;4.05;;;;;;;;;;10231561;28;20047;-78
2023/10/01 22:11:11;;;;;;;7.97;3.58;;;;;;;;;;10226075;29;20517;-79
2023/10/01 22:16:16;;;;;;;8.07;4.28;;;;;;;;;;10232160;28;20126;-78
2023/10/01 22:21:23;;;;;;;7.20;4.03;;;;;;;;;;10233526;28;20040;-78
2023/10/01 22:26:31;;;;;;;;;;;;;;;;;;10235911;28;20493;-81
2023/10/01 22:31:38;;;;;;;5.90;3.42;;;;;;;;;;10235737;28;19928;-78
2023/10/01 22:36:47;;;;;;;7.13;3.80;;;;;;;;;;10229534;28;20138;-78
2023/10/01 22:41:50;;;;;;;7.22;3.95;;;;;;;;;;10238033;29;20484;-78
2023/10/01 22:46:56;;;;;;;6.07;3.75;;;;;;;;;;10242017;28;20398;-79
2023/10/01 22:52:07;;;;;;;6.67;3.73;;;;;;;;;;10256742;29;20130;-79
2023/10/01 22:57:12;;;;;;;6.53;3.35;;;;;;;;;;10265506;28;20312;-78
2023/10/01 23:02:21;;;;;;;7.73;3.87;;;;;;;;;;10243670;29;20047;-78
2023/10/01 23:07:31;;;;;;;7.70;3.90;;;;;;;;;;10238278;28;20044;-78
2023/10/01 23:12:37;;;;;;;7.80;3.95;;;;;;;;;;10237258;29;20047;-78
2023/10/01 23:17:59;;;;;;;8.60;4.03;;;;;;;;;;10241815;28;20644;-78
2023/10/01 23:23:05;;;;;;;7.25;3.80;;;;;;;;;;10248852;28;20414;-78
2023/10/01 23:28:14;;;;;;;;;;;;;;;;;;10236902;28;20151;-78
2023/10/01 23:33:19;;;;;;;6.30;3.35;;;;;;;;;;10226634;29;19977;-77
2023/10/01 23:38:27;;;;;;;8.40;3.83;;;;;;;;;;10256261;28;20047;-78
2023/10/01 23:48:53;;;;;;;7.25;3.70;;;;;;;;;;10232005;29;20050;-78
2023/10/01 23:53:57;;;;;;;7.30;4.07;;;;;;;;;;10231088;29;20071;-78
2023/10/01 23:59:23;;;;;;;8.57;4.05;;;;;;;;;;10227971;29;20712;-78
